Terminal Aerodrome Forecast
Issued by NWS Wilmington, OH

Current Version | Previous Version | Text Only | Print | Product List | Glossary Off
Versions: 1 2 3 4 5 6 7 8 9 10 11 12 13 14 15 16 17 18 19 20 21 22 23 24

000
FTUS41 KILN 270336 AAA
TAFCMH
TAF AMD
KCMH 270336Z 2704/2724 16010KT P6SM BKN250
     FM270800 16010KT P6SM BKN250 WS020/20040KT
     FM271200 17010KT P6SM BKN035 WS020/20040KT
     FM271400 18013G27KT P6SM VCSH BKN035 OVC100
      TEMPO 2716/2719 -SHRA OVC022
     FM271900 20016G22KT P6SM OVC029
     FM272100 22016G25KT P6SM BKN035=

USA.gov is the U.S. government's official web portal to all federal, state and local government web resources and services.